createdAt,value
2023-02-16T00:04:33.815Z,10.60
2023-02-16T00:09:35.855Z,10.50
2023-02-16T00:14:39.419Z,10.50
2023-02-16T00:19:42.962Z,10.40
2023-02-16T00:24:45.152Z,10.40
2023-02-16T00:29:47.357Z,10.40
2023-02-16T00:34:49.427Z,10.30
2023-02-16T00:39:51.555Z,10.40
2023-02-16T00:44:55.978Z,10.30
2023-02-16T00:49:58.888Z,10.30
2023-02-16T00:55:03.827Z,10.30
2023-02-16T01:00:21.596Z,10.20
2023-02-16T01:05:24.629Z,10.30
2023-02-16T01:10:46.904Z,10.20
2023-02-16T01:15:49.108Z,10.20
2023-02-16T01:20:52.853Z,10.20
2023-02-16T01:25:55.088Z,10.20
2023-02-16T01:30:57.340Z,10.20
2023-02-16T01:35:59.734Z,10.10
2023-02-16T01:41:36.602Z,10.10
2023-02-16T01:46:51.537Z,10.10
2023-02-16T01:52:12.112Z,10.10
2023-02-16T01:57:25.561Z,10.10
2023-02-16T02:02:41.798Z,10.10
2023-02-16T02:08:04.254Z,10.10
2023-02-16T02:13:26.054Z,10.10
2023-02-16T02:18:28.356Z,10.00
2023-02-16T02:23:42.928Z,10.10
2023-02-16T02:28:51.309Z,10.00
2023-02-16T02:34:26.474Z,10.10
2023-02-16T02:39:54.379Z,10.10
2023-02-16T02:45:09.666Z,10.10
2023-02-16T02:50:36.773Z,10.10
2023-02-16T02:56:02.233Z,10.10
2023-02-16T03:01:07.306Z,10.10
2023-02-16T03:06:31.705Z,10.10
2023-02-16T03:11:52.467Z,10.10
2023-02-16T03:17:24.371Z,10.10
2023-02-16T03:22:45.684Z,10.10
2023-02-16T03:28:06.616Z,10.10
2023-02-16T03:33:08.751Z,10.20
2023-02-16T03:38:11.308Z,10.20
2023-02-16T03:43:13.379Z,10.20
2023-02-16T03:48:15.446Z,10.20
2023-02-16T03:53:18.413Z,10.20
2023-02-16T03:58:23.190Z,10.20
2023-02-16T04:03:26.197Z,10.10
2023-02-16T04:08:28.273Z,10.20
2023-02-16T04:13:30.369Z,10.10
2023-02-16T04:18:32.451Z,10.10
2023-02-16T04:23:34.505Z,10.20
2023-02-16T04:28:36.650Z,10.20
2023-02-16T04:33:38.931Z,10.10
2023-02-16T04:38:41.044Z,10.10
2023-02-16T04:43:43.077Z,10.10
2023-02-16T04:48:45.430Z,10.00
2023-02-16T04:53:47.638Z,10.00
2023-02-16T04:58:49.672Z,10.00
2023-02-16T05:03:52.199Z,10.00
2023-02-16T05:08:54.461Z,10.20
2023-02-16T05:14:18.500Z,10.10
2023-02-16T05:19:20.544Z,10.00
2023-02-16T05:24:22.692Z,10.10
2023-02-16T05:29:24.822Z,10.00
2023-02-16T05:34:26.915Z,10.10
2023-02-16T05:39:29.278Z,10.00
2023-02-16T05:44:31.376Z,10.00
2023-02-16T05:49:33.437Z,10.00
2023-02-16T05:54:35.535Z,10.00
2023-02-16T05:59:37.581Z,10.00
2023-02-16T06:04:39.791Z,10.10
2023-02-16T06:09:41.844Z,10.10
2023-02-16T06:14:43.915Z,10.10
2023-02-16T06:19:45.995Z,10.10
2023-02-16T06:24:48.061Z,10.10
2023-02-16T06:29:50.113Z,10.20
2023-02-16T06:34:52.157Z,10.20
2023-02-16T06:39:54.259Z,10.30
2023-02-16T06:44:56.281Z,10.20
2023-02-16T06:49:58.367Z,10.30
2023-02-16T06:55:00.728Z,10.20
2023-02-16T07:00:05.215Z,10.20
2023-02-16T07:05:07.402Z,10.20
2023-02-16T07:10:10.363Z,10.20
2023-02-16T07:15:12.658Z,10.20
2023-02-16T07:20:14.832Z,10.30
2023-02-16T07:25:17.036Z,10.30
2023-02-16T07:30:19.269Z,10.30
2023-02-16T07:35:22.846Z,10.40
2023-02-16T07:40:25.251Z,10.40
2023-02-16T07:45:27.748Z,10.40
2023-02-16T07:50:29.809Z,10.50
2023-02-16T07:55:31.950Z,10.50
2023-02-16T08:00:34.146Z,10.50
2023-02-16T08:05:36.187Z,10.60
2023-02-16T08:10:38.239Z,10.60
2023-02-16T08:15:43.841Z,10.70
2023-02-16T08:21:02.852Z,10.70
2023-02-16T08:26:10.631Z,10.70
2023-02-16T08:31:14.879Z,10.80
2023-02-16T08:36:20.650Z,10.80
2023-02-16T08:41:24.939Z,10.90
2023-02-16T08:46:32.469Z,10.90
2023-02-16T08:51:38.044Z,10.90
2023-02-16T08:56:41.634Z,10.90
2023-02-16T09:01:44.878Z,10.90
2023-02-16T09:06:48.564Z,10.90
2023-02-16T09:11:51.040Z,11.00
2023-02-16T09:16:53.270Z,11.00
2023-02-16T09:21:56.676Z,11.10
2023-02-16T09:26:58.734Z,11.20
2023-02-16T09:32:00.859Z,11.30
2023-02-16T09:37:02.912Z,11.40
2023-02-16T09:42:05.473Z,11.50
2023-02-16T09:47:31.024Z,11.60
2023-02-16T09:52:42.659Z,11.70
2023-02-16T09:57:59.682Z,11.80
2023-02-16T10:03:01.781Z,11.90
2023-02-16T10:08:09.511Z,12.10
2023-02-16T10:13:22.681Z,12.10
2023-02-16T10:18:33.523Z,12.10
2023-02-16T10:23:42.192Z,12.30
2023-02-16T10:28:55.749Z,12.30
2023-02-16T10:34:17.201Z,12.40
2023-02-16T10:39:28.877Z,12.60
2023-02-16T10:44:46.345Z,12.70
2023-02-16T10:49:49.304Z,12.80
2023-02-16T10:54:51.638Z,12.80
2023-02-16T10:59:55.103Z,12.80
2023-02-16T11:04:58.582Z,12.80
2023-02-16T11:10:19.716Z,12.80
2023-02-16T11:15:26.380Z,12.80
2023-02-16T11:20:51.601Z,12.90
2023-02-16T11:26:12.141Z,12.90
2023-02-16T11:31:32.161Z,12.90
2023-02-16T11:36:44.083Z,12.90
2023-02-16T11:41:59.131Z,13.00
2023-02-16T11:47:04.845Z,13.10
2023-02-16T11:52:24.864Z,13.00
2023-02-16T11:57:31.883Z,13.00
2023-02-16T12:03:01.456Z,13.10
2023-02-16T12:08:21.359Z,13.20
2023-02-16T12:13:44.649Z,13.20
2023-02-16T12:19:20.918Z,13.20
2023-02-16T12:24:52.479Z,13.30
2023-02-16T12:29:59.390Z,13.50
2023-02-16T12:35:41.958Z,13.50
2023-02-16T12:41:02.878Z,13.50
2023-02-16T12:46:29.283Z,13.40
2023-02-16T12:51:38.258Z,13.20
2023-02-16T12:56:47.754Z,13.10
2023-02-16T13:01:52.521Z,13.10
2023-02-16T13:07:06.252Z,13.10
2023-02-16T13:12:32.152Z,13.10
2023-02-16T13:18:03.876Z,13.20
2023-02-16T13:23:27.913Z,13.30
2023-02-16T13:28:44.976Z,13.30
2023-02-16T13:34:05.566Z,13.30
2023-02-16T13:39:29.701Z,13.40
2023-02-16T13:44:48.545Z,13.30
2023-02-16T13:50:00.459Z,13.40
2023-02-16T13:55:08.420Z,13.30
2023-02-16T14:00:29.191Z,13.30
2023-02-16T14:05:37.314Z,13.40
2023-02-16T14:10:53.259Z,13.40
2023-02-16T14:15:57.921Z,13.40
2023-02-16T14:21:06.401Z,13.40
2023-02-16T14:26:13.808Z,13.30
2023-02-16T14:31:22.928Z,13.30
2023-02-16T14:36:27.147Z,13.30
2023-02-16T14:41:36.444Z,13.30
2023-02-16T14:47:03.092Z,13.30
2023-02-16T14:52:37.146Z,13.20
2023-02-16T14:58:00.912Z,13.20
2023-02-16T15:03:15.290Z,13.20
2023-02-16T15:08:23.324Z,13.20
2023-02-16T15:13:30.491Z,13.30
2023-02-16T15:18:55.129Z,13.20
2023-02-16T15:24:00.246Z,13.20
2023-02-16T15:29:27.236Z,13.20
2023-02-16T15:34:35.280Z,13.30
2023-02-16T15:39:49.708Z,13.20
2023-02-16T15:44:58.272Z,13.20
2023-02-16T15:50:13.421Z,13.20
2023-02-16T15:55:15.596Z,13.20
2023-02-16T16:00:23.256Z,13.00
2023-02-16T16:05:39.821Z,13.00
2023-02-16T16:10:44.261Z,13.00
2023-02-16T16:15:50.341Z,13.00
2023-02-16T16:21:03.228Z,13.10
2023-02-16T16:26:19.721Z,13.10
2023-02-16T16:31:24.947Z,13.10
2023-02-16T16:36:36.865Z,13.00
2023-02-16T16:41:40.524Z,12.90
2023-02-16T16:46:42.633Z,12.80
2023-02-16T16:51:44.830Z,12.80
2023-02-16T16:56:47.105Z,12.80
2023-02-16T17:01:50.442Z,12.70
2023-02-16T17:06:52.631Z,12.60
2023-02-16T17:11:54.761Z,12.60
2023-02-16T17:16:58.517Z,12.50
2023-02-16T17:22:00.778Z,12.50
2023-02-16T17:27:02.934Z,12.50
2023-02-16T17:32:05.551Z,12.50
2023-02-16T17:37:07.947Z,12.40
2023-02-16T17:42:13.256Z,12.40
2023-02-16T17:47:16.843Z,12.40
2023-02-16T17:52:19.012Z,12.40
2023-02-16T17:57:21.161Z,12.30
2023-02-16T18:02:23.594Z,12.30
2023-02-16T18:07:25.983Z,12.30
2023-02-16T18:12:28.580Z,12.30
2023-02-16T18:17:30.784Z,12.30
2023-02-16T18:22:32.869Z,12.20
2023-02-16T18:27:35.138Z,12.20
2023-02-16T18:32:37.463Z,12.20
2023-02-16T18:37:39.994Z,12.20
2023-02-16T18:42:42.222Z,12.20
2023-02-16T18:47:45.324Z,12.20
2023-02-16T18:52:47.694Z,12.20
2023-02-16T18:57:49.923Z,12.20
2023-02-16T19:02:54.394Z,12.20
2023-02-16T19:07:56.911Z,12.20
2023-02-16T19:13:01.143Z,12.20
2023-02-16T19:18:04.168Z,12.20
2023-02-16T19:23:06.291Z,12.10
2023-02-16T19:28:08.445Z,12.10
2023-02-16T19:33:10.617Z,12.10
2023-02-16T19:38:12.888Z,12.10
2023-02-16T19:43:15.055Z,12.10
2023-02-16T19:48:19.107Z,12.10
2023-02-16T19:53:21.376Z,12.10
2023-02-16T19:58:25.325Z,12.00
2023-02-16T20:03:27.618Z,12.00
2023-02-16T20:08:29.746Z,12.00
2023-02-16T20:13:31.984Z,12.00
2023-02-16T20:18:35.067Z,12.00
2023-02-16T20:23:37.488Z,11.90
2023-02-16T20:28:39.707Z,12.00
2023-02-16T20:33:41.854Z,11.90
2023-02-16T20:38:44.288Z,11.90
2023-02-16T20:43:46.685Z,11.90
2023-02-16T20:48:50.123Z,11.90
2023-02-16T20:53:52.388Z,11.90
2023-02-16T20:58:56.231Z,11.90
2023-02-16T21:03:59.877Z,11.90
2023-02-16T21:09:02.990Z,11.90
2023-02-16T21:14:06.452Z,11.90
2023-02-16T21:19:21.192Z,11.90
2023-02-16T21:24:24.795Z,11.90
2023-02-16T21:29:27.060Z,11.90
2023-02-16T21:34:29.297Z,11.80
2023-02-16T21:39:50.324Z,11.80
2023-02-16T21:45:12.418Z,11.80
2023-02-16T21:50:17.099Z,11.80
2023-02-16T21:55:37.908Z,11.70
2023-02-16T22:00:40.411Z,11.80
2023-02-16T22:05:43.035Z,11.70
2023-02-16T22:10:45.156Z,11.70
2023-02-16T22:15:48.985Z,11.70
2023-02-16T22:20:51.155Z,11.70
2023-02-16T22:25:53.311Z,11.70
2023-02-16T22:30:55.559Z,11.70
2023-02-16T22:35:57.633Z,11.70
2023-02-16T22:41:03.656Z,11.70
2023-02-16T22:46:15.418Z,11.70
2023-02-16T22:51:19.180Z,11.60
2023-02-16T22:56:21.511Z,11.70
2023-02-16T23:01:23.664Z,11.70
2023-02-16T23:06:27.297Z,11.70
2023-02-16T23:11:30.172Z,11.70
2023-02-16T23:16:32.974Z,11.70
2023-02-16T23:21:35.194Z,11.70
2023-02-16T23:26:37.399Z,11.70
2023-02-16T23:31:41.920Z,11.60
2023-02-16T23:36:46.284Z,11.60
2023-02-16T23:41:49.004Z,11.60
2023-02-16T23:46:53.964Z,11.60
2023-02-16T23:51:57.169Z,11.70
2023-02-16T23:57:04.060Z,11.70
